Pagrindinis puslapis
METAR-TAF:

METAR-TAF

Oro uostai :

Puerto Fransisko de Oreljana, Ekvadoras

platuma: 00-27-46S, ilguma: 076-59-12W, Aukštis: 254 m

Dabartinis oras

Ataskaita buvo paskelbta 11 valandos ir 43 minutes, ne 21:00 UTC
Vėjas 2 kt iš Pietų/Pietryčių
Temperatūra 28°C
Drėgmė 74%
Slėgis 1010 hPa
Matomumas 10 km arba daugiau
Mažai debesys ne aukštis 2000 ft
Su prošvaistėmis ne aukštis 10000 ft

METAR: SECO 202100Z 15002KT 9999 FEW020 BKN100 28/23 Q1010 RMK A2982

Laikas: 03:43 (08:43 UTC)


TAF: trūkstamas

Orai ataskaitas ir orų prognozės (METAR, TAF).

turimą stotys yra geltonos ir raudonos taškus žemėlapyje.

Perkelti pele per norėdami pamatyti stoties vardą.

Tada spustelėkite, norėdami matyti oro stebėjimo ir prognozės.

Norėdami pakeisti žemėlapį: spustelėkite ant žalios mygtukų su juodo kryžiaus žemyn,; žalią mygtuką su brūkšneliu, jei norite nutolinti; arba žalių rodyklių gretimoms žemėlapius.


METAR-TAF: